createdAt,value
2022-09-27T00:01:16.906Z,9.82
2022-09-27T00:03:45.274Z,7.57
2022-09-27T00:06:15.842Z,6.05
2022-09-27T00:08:44.420Z,6.57
2022-09-27T00:11:18.652Z,5.60
2022-09-27T00:13:49.235Z,6.43
2022-09-27T00:16:17.317Z,8.27
2022-09-27T00:18:45.625Z,10.85
2022-09-27T00:21:14.725Z,8.60
2022-09-27T00:23:42.942Z,8.77
2022-09-27T00:26:13.823Z,6.75
2022-09-27T00:28:42.121Z,7.65
2022-09-27T00:31:21.000Z,8.07
2022-09-27T00:33:49.781Z,8.68
2022-09-27T00:36:17.990Z,7.13
2022-09-27T00:38:46.055Z,8.35
2022-09-27T00:41:17.538Z,9.25
2022-09-27T00:43:49.207Z,9.35
2022-09-27T00:46:27.661Z,8.60
2022-09-27T00:49:04.561Z,9.57
2022-09-27T00:51:34.644Z,8.65
2022-09-27T00:54:03.562Z,7.80
2022-09-27T00:56:33.466Z,7.60
2022-09-27T00:59:07.268Z,12.77
2022-09-27T01:01:36.923Z,7.07
2022-09-27T01:04:09.130Z,12.00
2022-09-27T01:06:37.964Z,8.95
2022-09-27T01:09:08.006Z,9.52
2022-09-27T01:11:45.423Z,7.82
2022-09-27T01:14:42.381Z,11.38
2022-09-27T01:17:26.662Z,7.72
2022-09-27T01:20:22.585Z,8.23
2022-09-27T01:23:05.530Z,12.35
2022-09-27T01:25:56.288Z,10.93
2022-09-27T01:28:36.504Z,9.45
2022-09-27T01:31:11.861Z,7.63
2022-09-27T01:33:47.509Z,8.90
2022-09-27T01:36:28.953Z,9.13
2022-09-27T01:39:09.540Z,11.27
2022-09-27T01:41:44.363Z,9.10
2022-09-27T01:44:17.414Z,7.45
2022-09-27T01:46:50.983Z,10.32
2022-09-27T01:49:24.464Z,9.38
2022-09-27T01:51:57.164Z,10.00
2022-09-27T01:54:31.917Z,8.77
2022-09-27T01:57:02.761Z,9.75
2022-09-27T01:59:36.253Z,8.70
2022-09-27T02:02:12.102Z,8.00
2022-09-27T02:04:43.159Z,7.72
2022-09-27T02:07:16.570Z,8.48
2022-09-27T02:09:49.807Z,8.95
2022-09-27T02:12:22.898Z,8.07
2022-09-27T02:14:54.860Z,10.73
2022-09-27T02:17:32.436Z,10.30
2022-09-27T02:20:12.141Z,9.55
2022-09-27T02:22:46.884Z,9.98
2022-09-27T02:25:21.767Z,12.77
2022-09-27T02:27:59.022Z,10.88
2022-09-27T02:30:27.633Z,10.57
2022-09-27T02:32:57.120Z,9.57
2022-09-27T02:37:56.445Z,10.45
2022-09-27T02:40:26.148Z,11.30
2022-09-27T02:42:54.261Z,12.25
2022-09-27T02:45:22.653Z,9.95
2022-09-27T02:48:14.079Z,15.40
2022-09-27T02:51:14.956Z,12.55
2022-09-27T02:53:55.995Z,10.48
2022-09-27T02:56:30.414Z,7.38
2022-09-27T02:59:07.882Z,7.45
2022-09-27T03:01:44.542Z,10.10
2022-09-27T03:04:18.656Z,11.10
2022-09-27T03:06:48.352Z,9.00
2022-09-27T03:09:20.540Z,8.88
2022-09-27T03:11:49.126Z,7.90
2022-09-27T03:14:17.304Z,9.00
2022-09-27T03:16:45.390Z,9.13
2022-09-27T03:19:14.967Z,10.02
2022-09-27T03:24:10.979Z,8.40
2022-09-27T03:26:39.020Z,8.45
2022-09-27T03:29:07.059Z,7.40
2022-09-27T03:31:35.125Z,8.05
2022-09-27T03:34:03.234Z,8.23
2022-09-27T03:36:32.752Z,13.00
2022-09-27T03:41:28.798Z,10.38
2022-09-27T03:43:57.905Z,9.68
2022-09-27T03:46:26.030Z,7.93
2022-09-27T03:48:54.354Z,10.25
2022-09-27T03:51:22.437Z,7.97
2022-09-27T03:53:51.930Z,7.82
2022-09-27T03:58:48.460Z,9.73
2022-09-27T04:01:16.625Z,9.85
2022-09-27T04:03:45.649Z,9.48
2022-09-27T04:06:13.965Z,6.80
2022-09-27T04:08:42.051Z,9.02
2022-09-27T04:11:11.507Z,9.07
2022-09-27T04:16:07.962Z,8.85
2022-09-27T04:18:36.072Z,12.77
2022-09-27T04:21:04.187Z,73.20
2022-09-27T04:23:32.266Z,44.65
2022-09-27T04:26:00.277Z,12.35
2022-09-27T04:28:29.798Z,10.48
2022-09-27T04:33:26.097Z,7.05
2022-09-27T04:36:11.692Z,7.25
2022-09-27T04:38:39.735Z,6.57
2022-09-27T04:41:08.234Z,10.05
2022-09-27T04:43:37.656Z,6.80
2022-09-27T04:46:05.997Z,9.05
2022-09-27T04:48:34.374Z,7.22
2022-09-27T04:51:03.638Z,8.27
2022-09-27T04:53:31.944Z,9.10
2022-09-27T04:56:02.791Z,8.40
2022-09-27T04:58:30.960Z,6.25
2022-09-27T05:01:01.662Z,10.73
2022-09-27T05:03:29.784Z,8.15
2022-09-27T05:05:57.875Z,7.35
2022-09-27T05:08:26.021Z,7.40
2022-09-27T05:10:54.755Z,11.80
2022-09-27T05:13:23.165Z,8.45
2022-09-27T05:15:52.625Z,6.18
2022-09-27T05:18:22.129Z,5.88
2022-09-27T05:20:50.162Z,6.63
2022-09-27T05:23:18.194Z,6.85
2022-09-27T05:25:46.254Z,5.97
2022-09-27T05:28:14.280Z,6.00
2022-09-27T05:30:42.771Z,8.70
2022-09-27T05:33:10.939Z,8.30
2022-09-27T05:35:45.504Z,8.48
2022-09-27T05:38:13.821Z,8.40
2022-09-27T05:40:45.375Z,6.78
2022-09-27T05:43:13.485Z,6.38
2022-09-27T05:45:41.880Z,6.07
2022-09-27T05:48:12.440Z,8.05
2022-09-27T05:50:41.912Z,6.40
2022-09-27T05:55:38.928Z,5.75
2022-09-27T05:58:08.659Z,5.70
2022-09-27T06:00:37.201Z,7.15
2022-09-27T06:03:06.580Z,5.60
2022-09-27T06:05:38.240Z,5.65
2022-09-27T06:08:09.603Z,4.70
2022-09-27T06:10:38.495Z,7.30
2022-09-27T06:13:08.508Z,6.53
2022-09-27T06:15:39.220Z,9.27
2022-09-27T06:18:09.901Z,5.47
2022-09-27T06:20:38.881Z,8.93
2022-09-27T06:23:09.921Z,9.98
2022-09-27T06:25:38.932Z,11.77
2022-09-27T06:28:06.998Z,10.95
2022-09-27T06:30:35.144Z,13.63
2022-09-27T06:33:04.296Z,13.57
2022-09-27T06:35:32.925Z,13.80
2022-09-27T06:38:04.692Z,12.50
2022-09-27T06:40:34.200Z,17.50
2022-09-27T06:45:35.502Z,11.45
2022-09-27T06:48:03.728Z,9.30
2022-09-27T06:50:32.817Z,9.48
2022-09-27T06:53:01.022Z,7.13
2022-09-27T06:55:29.395Z,9.63
2022-09-27T06:58:17.771Z,10.32
2022-09-27T07:00:46.596Z,9.60
2022-09-27T07:03:15.374Z,6.88
2022-09-27T07:05:43.840Z,9.47
2022-09-27T07:08:13.012Z,6.18
2022-09-27T07:10:41.788Z,9.40
2022-09-27T07:13:12.437Z,7.78
2022-09-27T07:15:42.616Z,3.95
2022-09-27T07:18:10.704Z,5.50
2022-09-27T07:20:38.824Z,3.60
2022-09-27T07:23:08.011Z,4.22
2022-09-27T07:25:36.801Z,4.40
2022-09-27T07:28:08.160Z,5.22
2022-09-27T07:30:38.758Z,12.38
2022-09-27T07:33:07.667Z,15.18
2022-09-27T07:35:36.897Z,6.35
2022-09-27T07:38:05.195Z,6.10
2022-09-27T07:40:33.676Z,6.30
2022-09-27T07:43:02.035Z,4.75
2022-09-27T07:45:30.125Z,5.53
2022-09-27T07:48:00.229Z,7.32
2022-09-27T07:50:28.872Z,4.28
2022-09-27T07:52:57.006Z,3.30
2022-09-27T07:55:25.252Z,5.28
2022-09-27T07:57:53.649Z,3.53
2022-09-27T08:00:21.832Z,2.58
2022-09-27T08:02:49.837Z,2.88
2022-09-27T08:05:19.349Z,2.45
2022-09-27T08:10:15.343Z,3.47
2022-09-27T08:12:43.380Z,4.47
2022-09-27T08:15:12.282Z,3.63
2022-09-27T08:17:40.327Z,3.60
2022-09-27T08:20:08.889Z,3.65
2022-09-27T08:22:43.370Z,2.80
2022-09-27T08:25:11.402Z,3.15
2022-09-27T08:27:39.484Z,2.60
2022-09-27T08:30:08.462Z,4.03
2022-09-27T08:32:37.807Z,3.70
2022-09-27T08:35:08.315Z,2.53
2022-09-27T08:37:36.343Z,3.25
2022-09-27T08:40:07.054Z,4.97
2022-09-27T08:42:46.511Z,4.10
2022-09-27T08:47:50.381Z,5.45
2022-09-27T08:50:26.569Z,7.28
2022-09-27T08:52:59.132Z,6.07
2022-09-27T08:55:33.484Z,13.45
2022-09-27T08:58:01.645Z,10.82
2022-09-27T09:00:30.792Z,16.17
2022-09-27T09:02:59.860Z,12.63
2022-09-27T09:05:31.519Z,9.52
2022-09-27T09:08:13.662Z,7.30
2022-09-27T09:11:10.134Z,9.60
2022-09-27T09:14:02.166Z,2.90
2022-09-27T09:16:41.758Z,3.40
2022-09-27T09:19:27.220Z,3.85
2022-09-27T09:22:05.325Z,6.53
2022-09-27T09:24:55.380Z,2.75
2022-09-27T09:27:32.634Z,3.45
2022-09-27T09:30:18.401Z,2.35
2022-09-27T09:33:01.243Z,4.05
2022-09-27T09:35:33.540Z,4.13
2022-09-27T09:38:06.024Z,1.70
2022-09-27T09:40:40.594Z,2.53
2022-09-27T09:43:17.339Z,2.03
2022-09-27T09:45:49.766Z,1.38
2022-09-27T09:48:25.080Z,0.80
2022-09-27T09:50:55.958Z,1.77
2022-09-27T09:53:31.141Z,3.25
2022-09-27T09:56:03.621Z,1.30
2022-09-27T09:58:41.522Z,1.10
2022-09-27T10:01:19.501Z,2.53
2022-09-27T10:03:47.853Z,3.60
2022-09-27T10:06:17.828Z,1.27
2022-09-27T10:08:47.386Z,1.20
2022-09-27T10:13:49.488Z,1.50
2022-09-27T10:16:21.326Z,1.60
2022-09-27T10:18:52.858Z,1.58
2022-09-27T10:21:23.220Z,1.27
2022-09-27T10:24:17.355Z,3.10
2022-09-27T10:26:48.485Z,0.90
2022-09-27T10:29:25.889Z,2.13
2022-09-27T10:31:54.307Z,0.88
2022-09-27T10:34:28.089Z,0.65
2022-09-27T10:37:25.027Z,1.80
2022-09-27T10:39:53.624Z,5.80
2022-09-27T10:42:23.645Z,1.97
2022-09-27T10:44:53.035Z,2.13
2022-09-27T10:47:25.384Z,1.20
2022-09-27T10:49:53.723Z,2.78
2022-09-27T10:52:24.971Z,2.80
2022-09-27T10:54:58.076Z,2.30
2022-09-27T10:57:28.123Z,8.23
2022-09-27T10:59:59.668Z,3.10
2022-09-27T11:02:31.658Z,1.60
2022-09-27T11:05:14.720Z,1.58
2022-09-27T11:07:52.640Z,1.20
2022-09-27T11:10:29.129Z,2.92
2022-09-27T11:13:09.026Z,1.95
2022-09-27T11:15:49.780Z,1.38
2022-09-27T11:18:26.883Z,2.28
2022-09-27T11:21:01.534Z,2.17
2022-09-27T11:23:44.404Z,2.28
2022-09-27T11:26:32.304Z,11.73
2022-09-27T11:29:07.751Z,2.28
2022-09-27T11:31:44.576Z,4.35
2022-09-27T11:34:29.733Z,3.75
2022-09-27T11:37:13.708Z,2.85
2022-09-27T11:39:56.664Z,1.35
2022-09-27T11:42:50.536Z,3.72
2022-09-27T11:45:45.400Z,4.15
2022-09-27T11:48:32.128Z,4.03
2022-09-27T11:51:14.697Z,2.35
2022-09-27T11:54:00.127Z,1.00
2022-09-27T11:56:41.811Z,1.15
2022-09-27T11:59:49.015Z,0.85
2022-09-27T12:02:45.719Z,0.88
2022-09-27T12:05:26.139Z,1.98
2022-09-27T12:08:10.697Z,1.23
2022-09-27T12:10:40.660Z,0.85
2022-09-27T12:13:13.883Z,1.08
2022-09-27T12:15:45.882Z,1.10
2022-09-27T12:18:21.855Z,1.35
2022-09-27T12:20:51.757Z,1.55
2022-09-27T12:23:24.735Z,1.80
2022-09-27T12:25:58.394Z,2.10
2022-09-27T12:28:34.649Z,3.05
2022-09-27T12:31:28.391Z,1.45
2022-09-27T12:34:05.743Z,1.92
2022-09-27T12:36:40.594Z,1.75
2022-09-27T12:39:16.863Z,1.52
2022-09-27T12:41:50.692Z,2.95
2022-09-27T12:44:18.682Z,3.20
2022-09-27T12:47:01.114Z,1.23
2022-09-27T12:49:41.921Z,4.43
2022-09-27T12:52:19.097Z,3.75
2022-09-27T12:55:22.194Z,2.03
2022-09-27T12:58:01.312Z,1.65
2022-09-27T13:00:37.451Z,2.08
2022-09-27T13:03:26.374Z,2.30
2022-09-27T13:06:26.952Z,1.52
2022-09-27T13:09:12.907Z,4.30
2022-09-27T13:11:48.911Z,2.45
2022-09-27T13:14:20.754Z,0.75
2022-09-27T13:16:51.287Z,0.98
2022-09-27T13:19:44.300Z,1.10
2022-09-27T13:22:40.025Z,1.80
2022-09-27T13:25:41.574Z,1.52
2022-09-27T13:28:35.517Z,0.65
2022-09-27T13:31:04.709Z,0.73
2022-09-27T13:33:43.175Z,1.35
2022-09-27T13:36:34.931Z,3.47
2022-09-27T13:39:19.543Z,1.13
2022-09-27T13:42:07.377Z,1.92
2022-09-27T13:44:44.128Z,2.10
2022-09-27T13:47:27.256Z,0.98
2022-09-27T13:50:00.459Z,1.92
2022-09-27T13:52:33.914Z,0.63
2022-09-27T13:55:03.398Z,0.63
2022-09-27T13:57:45.683Z,0.90
2022-09-27T14:00:19.842Z,2.63
2022-09-27T14:02:57.802Z,0.70
2022-09-27T14:05:32.140Z,0.60
2022-09-27T14:08:02.331Z,0.65
2022-09-27T14:10:31.513Z,0.85
2022-09-27T14:13:04.058Z,1.08
2022-09-27T14:15:34.130Z,0.70
2022-09-27T14:18:02.346Z,3.10
2022-09-27T14:20:36.040Z,1.75
2022-09-27T14:23:04.968Z,2.40
2022-09-27T14:25:33.463Z,1.27
2022-09-27T14:28:01.679Z,1.48
2022-09-27T14:30:31.170Z,0.75
2022-09-27T14:33:01.548Z,3.97
2022-09-27T14:35:54.291Z,1.70
2022-09-27T14:38:39.331Z,1.45
2022-09-27T14:41:09.812Z,1.23
2022-09-27T14:43:44.305Z,1.13
2022-09-27T14:46:28.361Z,1.02
2022-09-27T14:48:59.231Z,1.15
2022-09-27T14:51:29.670Z,4.20
2022-09-27T14:54:01.125Z,1.88
2022-09-27T14:56:32.185Z,1.75
2022-09-27T14:59:06.465Z,1.73
2022-09-27T15:01:35.037Z,0.82
2022-09-27T15:04:10.929Z,1.13
2022-09-27T15:06:39.347Z,1.33
2022-09-27T15:09:10.204Z,27.05
2022-09-27T15:11:41.495Z,3.25
2022-09-27T15:14:14.913Z,2.13
2022-09-27T15:16:43.797Z,1.48
2022-09-27T15:19:18.849Z,2.17
2022-09-27T15:21:46.949Z,1.08
2022-09-27T15:24:38.848Z,1.88
2022-09-27T15:27:14.894Z,1.48
2022-09-27T15:29:45.222Z,0.85
2022-09-27T15:32:18.331Z,2.13
2022-09-27T15:34:47.782Z,0.60
2022-09-27T15:39:54.215Z,2.38
2022-09-27T15:42:22.534Z,2.50
2022-09-27T15:44:52.430Z,0.90
2022-09-27T15:47:41.053Z,0.65
2022-09-27T15:50:41.354Z,1.73
2022-09-27T15:53:10.369Z,1.70
2022-09-27T15:55:45.216Z,4.68
2022-09-27T15:58:16.871Z,4.40
2022-09-27T16:00:55.573Z,5.03
2022-09-27T16:03:23.873Z,4.97
2022-09-27T16:05:56.022Z,5.32
2022-09-27T16:08:24.207Z,3.50
2022-09-27T16:10:54.926Z,4.30
2022-09-27T16:13:23.491Z,1.30
2022-09-27T16:15:52.050Z,1.00
2022-09-27T16:18:20.445Z,0.60
2022-09-27T16:20:48.461Z,0.65
2022-09-27T16:23:17.874Z,2.08
2022-09-27T16:28:13.864Z,0.63
2022-09-27T16:30:41.851Z,1.73
2022-09-27T16:33:09.852Z,0.88
2022-09-27T16:35:41.882Z,1.85
2022-09-27T16:38:09.885Z,1.10
2022-09-27T16:40:39.474Z,1.20
2022-09-27T16:43:08.132Z,1.67
2022-09-27T16:45:36.573Z,0.77
2022-09-27T16:48:05.068Z,1.55
2022-09-27T16:50:50.440Z,1.80
2022-09-27T16:53:18.477Z,0.88
2022-09-27T16:55:47.779Z,1.13
2022-09-27T16:58:15.787Z,1.45
2022-09-27T17:00:44.054Z,0.82
2022-09-27T17:03:12.181Z,1.10
2022-09-27T17:05:40.206Z,0.60
2022-09-27T17:08:08.205Z,0.95
2022-09-27T17:10:38.566Z,1.77
2022-09-27T17:13:07.985Z,1.75
2022-09-27T17:15:37.450Z,2.67
2022-09-27T17:18:05.662Z,2.63
2022-09-27T17:20:33.733Z,3.10
2022-09-27T17:23:01.702Z,2.58
2022-09-27T17:25:29.685Z,2.90
2022-09-27T17:27:58.532Z,3.38
2022-09-27T17:30:31.042Z,4.18
2022-09-27T17:32:59.064Z,3.70
2022-09-27T17:35:27.063Z,4.10
2022-09-27T17:37:56.801Z,1.50
2022-09-27T17:40:24.809Z,3.28
2022-09-27T17:42:52.798Z,3.67
2022-09-27T17:45:21.504Z,3.17
2022-09-27T17:48:12.858Z,3.42
2022-09-27T17:50:41.573Z,3.60
2022-09-27T17:53:10.035Z,5.10
2022-09-27T17:55:37.973Z,3.75
2022-09-27T17:58:06.317Z,6.93
2022-09-27T18:00:34.306Z,3.72
2022-09-27T18:03:03.830Z,3.10
2022-09-27T18:08:00.654Z,3.08
2022-09-27T18:10:28.657Z,4.43
2022-09-27T18:12:56.607Z,3.13
2022-09-27T18:15:24.580Z,9.00
2022-09-27T18:17:57.850Z,9.73
2022-09-27T18:20:27.517Z,6.55
2022-09-27T18:22:55.588Z,6.70
2022-09-27T18:25:24.971Z,6.97
2022-09-27T18:27:55.461Z,5.07
2022-09-27T18:30:23.437Z,6.03
2022-09-27T18:32:51.406Z,6.13
2022-09-27T18:35:20.261Z,7.30
2022-09-27T18:37:49.580Z,6.68
2022-09-27T18:40:28.060Z,5.18
2022-09-27T18:43:05.958Z,5.13
2022-09-27T18:45:36.760Z,7.15
2022-09-27T18:48:05.068Z,6.25
2022-09-27T18:50:37.300Z,7.40
2022-09-27T18:53:08.241Z,8.32
2022-09-27T18:55:38.305Z,7.47
2022-09-27T18:58:06.352Z,6.80
2022-09-27T19:00:34.353Z,6.40
2022-09-27T19:03:02.330Z,6.78
2022-09-27T19:05:30.298Z,11.90
2022-09-27T19:07:58.243Z,10.52
2022-09-27T19:10:27.599Z,10.52
2022-09-27T19:12:57.171Z,10.98
2022-09-27T19:17:54.031Z,7.68
2022-09-27T19:20:22.504Z,10.45
2022-09-27T19:22:50.532Z,17.25
2022-09-27T19:25:18.518Z,12.93
2022-09-27T19:27:47.857Z,12.27
2022-09-27T19:30:15.975Z,9.27
2022-09-27T19:32:43.934Z,10.85
2022-09-27T19:35:12.400Z,10.02
2022-09-27T19:37:40.580Z,7.07
2022-09-27T19:40:09.312Z,5.53
2022-09-27T19:42:37.359Z,7.65
2022-09-27T19:45:11.366Z,4.07
2022-09-27T19:47:39.704Z,4.53
2022-09-27T19:50:08.799Z,3.53
2022-09-27T19:52:37.219Z,4.43
2022-09-27T19:55:06.052Z,3.88
2022-09-27T19:57:33.976Z,5.28
2022-09-27T20:00:02.236Z,5.38
2022-09-27T20:02:31.667Z,3.88
2022-09-27T20:07:27.465Z,3.33
2022-09-27T20:09:55.450Z,10.20
2022-09-27T20:12:24.480Z,3.55
2022-09-27T20:14:52.422Z,3.25
2022-09-27T20:17:20.409Z,3.97
2022-09-27T20:19:49.780Z,3.28
2022-09-27T20:22:17.735Z,4.40
2022-09-27T20:24:45.678Z,4.25
2022-09-27T20:27:13.611Z,4.45
2022-09-27T20:29:41.608Z,3.22
2022-09-27T20:32:26.858Z,4.25
2022-09-27T20:34:57.625Z,4.13
2022-09-27T20:39:54.083Z,3.22
2022-09-27T20:42:22.112Z,4.13
2022-09-27T20:44:54.185Z,3.95
2022-09-27T20:47:22.935Z,3.78
2022-09-27T20:49:50.960Z,4.25
2022-09-27T20:52:20.593Z,2.00
2022-09-27T20:54:48.593Z,2.30
2022-09-27T20:57:16.606Z,1.75
2022-09-27T20:59:44.549Z,1.40
2022-09-27T21:02:12.728Z,1.63
2022-09-27T21:04:40.902Z,1.25
2022-09-27T21:07:08.900Z,1.30
2022-09-27T21:09:38.770Z,2.30
2022-09-27T21:12:06.976Z,1.17
2022-09-27T21:14:35.381Z,0.95
2022-09-27T21:17:03.367Z,1.13
2022-09-27T21:19:31.353Z,1.60
2022-09-27T21:21:59.323Z,1.20
2022-09-27T21:24:27.368Z,1.20
2022-09-27T21:26:58.152Z,1.25
2022-09-27T21:29:26.132Z,2.60
2022-09-27T21:31:54.159Z,1.63
2022-09-27T21:34:22.133Z,2.45
2022-09-27T21:36:50.102Z,3.03
2022-09-27T21:39:18.122Z,1.00
2022-09-27T21:41:46.065Z,0.93
2022-09-27T21:44:15.714Z,1.23
2022-09-27T21:46:43.915Z,2.00
2022-09-27T21:49:12.080Z,1.95
2022-09-27T21:51:41.404Z,0.82
2022-09-27T21:54:11.732Z,0.60
2022-09-27T21:56:41.251Z,1.55
2022-09-27T22:01:42.841Z,2.55
2022-09-27T22:04:10.852Z,0.95
2022-09-27T22:06:40.218Z,1.75
2022-09-27T22:09:09.562Z,1.35
2022-09-27T22:11:39.543Z,1.13
2022-09-27T22:14:07.868Z,0.95
2022-09-27T22:16:36.246Z,0.77
2022-09-27T22:19:06.429Z,0.98
2022-09-27T22:21:36.224Z,1.27
2022-09-27T22:24:07.946Z,1.38
2022-09-27T22:26:38.086Z,1.67
2022-09-27T22:29:06.785Z,1.70
2022-09-27T22:31:35.228Z,1.63
2022-09-27T22:34:06.639Z,2.15
2022-09-27T22:36:35.681Z,1.80
2022-09-27T22:39:04.285Z,1.52
2022-09-27T22:41:32.216Z,2.30
2022-09-27T22:44:01.165Z,1.38
2022-09-27T22:46:29.327Z,1.17
2022-09-27T22:48:57.339Z,2.05
2022-09-27T22:51:26.934Z,1.48
2022-09-27T22:56:22.705Z,1.95
2022-09-27T22:58:51.090Z,1.85
2022-09-27T23:01:20.626Z,1.98
2022-09-27T23:06:19.266Z,1.10
2022-09-27T23:08:48.933Z,2.28
2022-09-27T23:11:19.221Z,1.15
2022-09-27T23:13:48.449Z,3.85
2022-09-27T23:16:19.295Z,1.00
2022-09-27T23:18:47.606Z,2.10
2022-09-27T23:21:16.983Z,1.95
2022-09-27T23:23:46.812Z,0.80
2022-09-27T23:26:17.464Z,1.73
2022-09-27T23:28:45.479Z,2.47
2022-09-27T23:31:15.372Z,1.27
2022-09-27T23:33:45.598Z,1.30
2022-09-27T23:36:16.780Z,1.63
2022-09-27T23:38:45.713Z,3.55
2022-09-27T23:41:16.360Z,1.90
2022-09-27T23:43:44.760Z,1.27
2022-09-27T23:46:15.545Z,1.70
2022-09-27T23:48:44.496Z,2.63
2022-09-27T23:51:13.190Z,1.13
2022-09-27T23:53:41.532Z,1.27
2022-09-27T23:56:13.006Z,1.75
2022-09-27T23:58:43.688Z,1.58
